Time,TemperatureF,DewpointF,PressureIn,WindDirection,WindDirectionDegrees,WindSpeedMPH,WindSpeedGustMPH,Humidity,HourlyPrecipIn,Conditions,Clouds,dailyrainin,SoftwareType,DateUTC
2013-04-15 00:05:00,47.5,38.9,29.92,SSW,203,0.4,0.4,72,0.03,,,0.00,WUHU216HW,2013-04-15 04:05:00,
2013-04-15 00:35:00,47.2,38.6,29.90,SSE,158,0.2,0.2,72,0.01,,,0.00,WUHU216HW,2013-04-15 04:35:00,
2013-04-15 01:05:00,47.3,39.1,29.93,SSE,158,0.0,0.0,73,0.00,,,0.00,WUHU216HW,2013-04-15 05:05:00,
2013-04-15 01:35:00,47.7,39.4,29.95,SE,135,0.4,0.4,73,0.00,,,0.00,WUHU216HW,2013-04-15 05:35:00,
2013-04-15 02:05:00,47.9,40.0,29.95,South,180,0.0,0.0,74,0.00,,,0.00,WUHU216HW,2013-04-15 06:05:00,
2013-04-15 02:35:00,48.1,40.1,29.94,SW,225,0.0,0.0,74,0.00,,,0.00,WUHU216HW,2013-04-15 06:35:00,
2013-04-15 03:05:00,48.4,40.8,29.94,SSW,203,0.0,0.0,75,0.00,,,0.00,WUHU216HW,2013-04-15 07:05:00,
2013-04-15 03:30:00,48.6,40.6,29.93,South,180,0.0,0.0,74,0.00,,,0.00,WUHU216HW,2013-04-15 07:30:00,
2013-04-15 04:05:00,48.8,40.8,29.93,South,180,0.0,0.0,74,0.00,,,0.00,WUHU216HW,2013-04-15 08:05:00,
2013-04-15 04:35:00,49.1,41.5,29.93,ESE,113,0.7,0.7,75,0.00,,,0.00,WUHU216HW,2013-04-15 08:35:00,
2013-04-15 05:05:00,49.3,41.7,29.95,ESE,113,0.0,0.0,75,0.00,,,0.00,WUHU216HW,2013-04-15 09:05:00,
2013-04-15 05:35:00,49.3,41.7,29.96,ESE,113,0.0,0.0,75,0.00,,,0.00,WUHU216HW,2013-04-15 09:35:00,
2013-04-15 06:05:00,49.5,41.9,29.96,ESE,113,0.0,0.0,75,0.00,,,0.00,WUHU216HW,2013-04-15 10:05:00,
2013-04-15 06:35:00,49.7,42.0,29.96,ESE,113,0.0,0.0,75,0.00,,,0.00,WUHU216HW,2013-04-15 10:35:00,
2013-04-15 07:05:00,49.9,42.2,29.98,ESE,113,0.0,0.0,75,0.00,,,0.00,WUHU216HW,2013-04-15 11:05:00,
2013-04-15 07:35:00,50.0,42.4,29.99,ESE,113,0.0,0.0,75,0.00,,,0.00,WUHU216HW,2013-04-15 11:35:00,
2013-04-15 08:05:00,50.0,42.4,29.99,ESE,113,0.0,0.0,75,0.00,,,0.00,WUHU216HW,2013-04-15 12:05:00,
2013-04-15 08:35:00,50.4,43.1,29.99,ESE,113,0.0,0.0,76,0.00,,,0.00,WUHU216HW,2013-04-15 12:35:00,
2013-04-15 09:05:00,50.8,43.5,30.01,ESE,113,0.0,0.0,76,0.00,,,0.00,WUHU216HW,2013-04-15 13:05:00,
2013-04-15 09:35:00,51.3,44.0,30.02,ESE,113,0.0,0.0,76,0.00,,,0.00,WUHU216HW,2013-04-15 13:35:00,
2013-04-15 10:05:00,52.6,45.2,30.02,ESE,113,0.0,0.0,76,0.00,,,0.00,WUHU216HW,2013-04-15 14:05:00,
2013-04-15 10:35:00,53.6,44.8,30.02,WSW,248,0.4,0.4,72,0.00,,,0.00,WUHU216HW,2013-04-15 14:35:00,
2013-04-15 11:05:00,54.4,44.0,30.03,WSW,248,0.0,0.0,68,0.00,,,0.00,WUHU216HW,2013-04-15 15:05:00,
2013-04-15 11:35:00,55.8,45.0,30.04,ESE,113,1.1,1.1,67,0.00,,,0.00,WUHU216HW,2013-04-15 15:35:00,
2013-04-15 12:05:00,56.9,44.8,30.03,WSW,248,0.0,0.0,64,0.00,,,0.00,WUHU216HW,2013-04-15 16:05:00,
2013-04-15 12:35:00,58.7,45.3,30.05,West,270,0.4,0.4,61,0.00,,,0.00,WUHU216HW,2013-04-15 16:35:00,
2013-04-15 13:05:00,61.6,45.2,30.03,West,270,1.3,1.3,55,0.00,,,0.00,WUHU216HW,2013-04-15 17:05:00,
2013-04-15 13:35:00,63.0,46.0,30.03,SE,135,2.9,2.9,54,0.00,,,0.00,WUHU216HW,2013-04-15 17:35:00,
2013-04-15 14:05:00,62.6,47.6,30.05,SSE,158,0.4,0.4,58,0.00,,,0.00,WUHU216HW,2013-04-15 18:05:00,
2013-04-15 14:35:00,63.7,48.2,30.05,SE,135,0.2,0.2,57,0.00,,,0.00,WUHU216HW,2013-04-15 18:35:00,
2013-04-15 15:05:00,65.3,47.7,30.05,SW,225,0.7,0.7,53,0.00,,,0.00,WUHU216HW,2013-04-15 19:05:00,
2013-04-15 15:35:00,62.1,46.6,30.06,SSE,158,0.2,0.2,57,0.00,,,0.00,WUHU216HW,2013-04-15 19:35:00,
2013-04-15 16:05:00,60.5,46.2,30.06,ESE,113,0.4,0.4,59,0.00,,,0.00,WUHU216HW,2013-04-15 20:05:00,
2013-04-15 16:35:00,58.9,45.5,30.07,SSW,203,0.2,0.2,61,0.00,,,0.00,WUHU216HW,2013-04-15 20:35:00,
2013-04-15 17:05:00,58.3,45.7,30.07,SE,135,0.4,0.4,63,0.00,,,0.00,WUHU216HW,2013-04-15 21:05:00,
2013-04-15 17:35:00,58.1,46.0,30.07,ESE,113,1.1,1.1,64,0.00,,,0.00,WUHU216HW,2013-04-15 21:35:00,
2013-04-15 18:05:00,57.2,45.5,30.07,SSW,203,0.4,0.4,65,0.00,,,0.00,WUHU216HW,2013-04-15 22:05:00,
2013-04-15 18:35:00,57.1,45.8,30.08,SE,135,0.4,0.4,66,0.00,,,0.00,WUHU216HW,2013-04-15 22:35:00,
2013-04-15 19:05:00,56.5,45.6,30.08,SSW,203,0.2,0.2,67,0.00,,,0.00,WUHU216HW,2013-04-15 23:05:00,
2013-04-15 19:35:00,56.0,45.2,30.10,SSE,158,0.4,0.4,67,0.00,,,0.00,WUHU216HW,2013-04-15 23:35:00,
2013-04-15 20:05:00,55.8,45.4,30.12,SE,135,0.0,0.0,68,0.00,,,0.00,WUHU216HW,2013-04-16 00:05:00,
2013-04-15 20:35:00,55.4,45.1,30.07,SE,135,0.4,0.4,68,0.00,,,0.00,WUHU216HW,2013-04-16 00:35:00,
2013-04-15 21:05:00,55.3,45.3,30.08,SE,135,1.1,1.1,69,0.00,,,0.00,WUHU216HW,2013-04-16 01:05:00,
2013-04-15 21:35:00,55.1,45.1,30.14,SE,135,0.4,0.4,69,0.00,,,0.00,WUHU216HW,2013-04-16 01:35:00,
2013-04-15 22:05:00,55.1,45.1,30.16,SE,135,0.0,0.0,69,0.00,,,0.00,WUHU216HW,2013-04-16 02:05:00,
2013-04-15 22:35:00,55.1,44.7,30.16,SE,135,0.0,0.0,68,0.00,,,0.00,WUHU216HW,2013-04-16 02:35:00,
2013-04-15 23:05:00,55.1,44.7,30.16,SSW,203,0.0,0.0,68,0.00,,,0.00,WUHU216HW,2013-04-16 03:05:00,
2013-04-15 23:35:00,54.9,44.9,30.17,South,180,0.0,0.0,69,0.00,,,0.00,WUHU216HW,2013-04-16 03:35:00,